Solicitamos su permiso para obtener datos estadísticos de su navegación en esta web, en cumplimiento del Real Decreto-ley 13/2012. Si continúa navegando consideramos que acepta el uso de cookies. OK | Más información

MAPA DE AEROPUERTO

INFORMACIÓN METAR y TAF

METAR FOR GCFV
ADDS - METARS form results

(0347 UTC 18 January 2018)
Data provider http://aviationweather.gov/adds/metars/
 
METAR text: GCFV 180330Z AUTO 01011KT 9999 BKN039/// 17/13 Q1020
Conditions at: GCFV (FUERTEVENTURA AR, ES) observed 0330 UTC 18 January 2018
Temperature: 17.0°C (63°F)
Dewpoint: 13.0°C (55°F) [RH = 77%]
Pressure (altimeter): 30.12 inches Hg (1020.0 mb)
Winds: from the N (10 degrees) at 13 MPH (11 knots; 5.7 m/s)
Visibility: 6 or more miles (10+ km)
Ceiling: 3900 feet AGL
Clouds: broken clouds at 3900 feet AGL
Weather: no significant weather observed at this time

METAR text: GCFV 180300Z AUTO 36012KT 340V040 9999 FEW040 17/12 Q1020
Conditions at: GCFV (FUERTEVENTURA AR, ES) observed 0300 UTC 18 January 2018
Temperature: 17.0°C (63°F)
Dewpoint: 12.0°C (54°F) [RH = 72%]
Pressure (altimeter): 30.12 inches Hg (1020.0 mb)
Winds: from the N (360 degrees) at 14 MPH (12 knots; 6.2 m/s)
Visibility: 6 or more miles (10+ km)
Ceiling: at least 12,000 feet AGL
Clouds: few clouds at 4000 feet AGL
Weather: no significant weather observed at this time

Forecast for: GCFV (FUERTEVENTURA AR, ES)
Text: TAF GCFV 180200Z 1803/1903 35012KT 9999 FEW020 TX21/1814Z TN16/1806Z
Forecast period: 0300 UTC 18 January 2018 to 0300 UTC 19 January 2018
Forecast type: FROM: standard forecast or significant change
Winds: from the N (350 degrees) at 14 MPH (12 knots; 6.2 m/s)
Visibility: 6 or more miles (10+ km)
Clouds: few clouds at 2000 feet AGL
Weather: no significant weather forecast for this period